Time;durP1;ratioP1;P1;durP2;ratioP2;P2;SDS_P1;SDS_P2;PMS_P1;PMS_P2;Temp;Humidity;BMP_temperature;BMP_pressure;BME280_temperature;BME280_humidity;BME280_pressure;Samples;Min_cycle;Max_cycle;Signal;HPM_P1;HPM_P2
2022/09/09 00:01:56;;;;;;;6.20;1.60;;;17.60;81.20;;;;;;5016493;28;20037;-70
2022/09/09 00:04:27;;;;;;;4.88;2.60;;;17.60;81.40;;;;;;5014931;28;20029;-74
2022/09/09 00:06:59;;;;;;;7.30;1.40;;;17.60;81.40;;;;;;5014847;28;20472;-71
2022/09/09 00:09:28;;;;;;;6.00;1.48;;;17.60;81.60;;;;;;5015384;28;20018;-70
2022/09/09 00:12:24;;;;;;;7.80;1.40;;;17.60;81.60;;;;;;5012666;28;20018;-76
2022/09/09 00:15:13;;;;;;;5.13;2.30;;;17.50;81.50;;;;;;5017072;28;20622;-72
2022/09/09 00:18:04;;;;;;;14.27;2.90;;;17.50;81.60;;;;;;5015530;28;20029;-72
2022/09/09 00:20:43;;;;;;;5.10;1.58;;;17.60;82.00;;;;;;5011521;28;20041;-70
2022/09/09 00:23:36;;;;;;;5.15;1.83;;;17.60;82.30;;;;;;5017129;28;20104;-71
2022/09/09 00:26:03;;;;;;;9.88;2.30;;;17.60;82.40;;;;;;5019735;28;20151;-76
2022/09/09 00:28:33;;;;;;;6.40;1.52;;;17.50;82.20;;;;;;5014967;28;20528;-71
2022/09/09 00:31:13;;;;;;;1.92;0.95;;;17.50;82.10;;;;;;5013344;28;20413;-70
2022/09/09 00:33:41;;;;;;;5.47;1.45;;;17.50;82.10;;;;;;5013741;28;20025;-73
2022/09/09 00:36:15;;;;;;;4.75;1.98;;;17.50;82.10;;;;;;5019260;28;20041;-72
2022/09/09 00:38:56;;;;;;;7.18;3.08;;;17.50;82.20;;;;;;5014970;28;20029;-74
2022/09/09 00:41:26;;;;;;;9.30;1.77;;;17.50;82.30;;;;;;5016143;28;20026;-75
2022/09/09 00:44:28;;;;;;;6.63;1.58;;;17.50;82.30;;;;;;5017163;28;20025;-76
2022/09/09 00:47:12;;;;;;;5.05;1.25;;;17.50;82.40;;;;;;5018360;28;20489;-73
2022/09/09 00:49:58;;;;;;;4.38;1.45;;;17.50;82.40;;;;;;5016855;28;20064;-72
2022/09/09 00:52:49;;;;;;;12.55;1.92;;;17.40;82.60;;;;;;5020404;28;20040;-74
2022/09/09 00:55:27;;;;;;;5.85;1.40;;;17.40;82.80;;;;;;5018854;28;20473;-76
2022/09/09 00:57:53;;;;;;;8.18;2.25;;;17.40;83.00;;;;;;5019116;28;20092;-72
2022/09/09 01:00:52;;;;;;;7.82;3.15;;;17.40;83.10;;;;;;5014137;28;20073;-71
2022/09/09 01:03:36;;;;;;;8.13;2.20;;;17.40;83.30;;;;;;4967196;28;20039;-73
2022/09/09 01:06:17;;;;;;;4.90;1.75;;;17.40;83.40;;;;;;5020148;28;20029;-74
2022/09/09 01:09:01;;;;;;;7.97;2.75;;;17.40;83.40;;;;;;5017493;28;20088;-72
2022/09/09 01:11:43;;;;;;;9.37;2.20;;;17.40;83.60;;;;;;5019877;28;20025;-69
2022/09/09 01:14:38;;;;;;;4.72;2.00;;;17.40;83.50;;;;;;5014349;28;20431;-73
2022/09/09 01:17:27;;;;;;;7.63;1.92;;;17.40;83.40;;;;;;5017496;28;20041;-73
2022/09/09 01:20:04;;;;;;;7.45;1.88;;;17.40;83.60;;;;;;5019042;28;20038;-71
2022/09/09 01:22:55;;;;;;;10.77;2.08;;;17.40;83.70;;;;;;5016215;28;20169;-70
2022/09/09 01:25:30;;;;;;;5.53;1.83;;;17.30;83.60;;;;;;5013745;28;20115;-72
2022/09/09 01:28:03;;;;;;;5.57;1.92;;;17.30;83.70;;;;;;5016761;28;20022;-73
2022/09/09 01:30:30;;;;;;;7.55;1.85;;;17.30;83.80;;;;;;5018532;28;20528;-70
2022/09/09 01:33:00;;;;;;;11.90;2.70;;;17.30;83.70;;;;;;5021790;28;20117;-75
2022/09/09 01:35:50;;;;;;;6.60;1.60;;;17.30;83.70;;;;;;5017916;28;20112;-71
2022/09/09 01:38:18;;;;;;;8.32;2.13;;;17.30;83.60;;;;;;5016869;28;20429;-70
2022/09/09 01:40:44;;;;;;;8.13;3.35;;;17.30;83.50;;;;;;5014651;28;20034;-72
2022/09/09 01:43:11;;;;;;;6.88;1.60;;;17.30;83.50;;;;;;5018900;28;20034;-76
2022/09/09 01:45:41;;;;;;;7.95;1.55;;;17.30;83.50;;;;;;5017760;28;20734;-72
2022/09/09 01:48:07;;;;;;;6.90;1.83;;;17.30;83.40;;;;;;5017618;28;20472;-70
2022/09/09 01:50:34;;;;;;;4.75;1.58;;;17.20;83.30;;;;;;5000350;28;20032;-72
2022/09/09 01:53:02;;;;;;;6.28;1.10;;;17.20;83.30;;;;;;5018078;28;20408;-73
2022/09/09 01:55:40;;;;;;;10.80;1.60;;;17.20;83.20;;;;;;5018979;28;20458;-76
2022/09/09 01:58:13;;;;;;;10.00;2.72;;;17.30;83.30;;;;;;5016777;28;20030;-77
2022/09/09 02:00:48;;;;;;;5.72;1.73;;;17.30;83.30;;;;;;5017543;28;20062;-74
2022/09/09 02:03:29;;;;;;;4.55;1.58;;;17.30;83.20;;;;;;5017985;28;20477;-77
2022/09/09 02:06:14;;;;;;;6.50;2.53;;;17.30;83.10;;;;;;5017846;28;20084;-72
2022/09/09 02:08:51;;;;;;;;;;;17.20;83.00;;;;;;5020442;28;20026;-75
2022/09/09 02:11:17;;;;;;;4.28;1.23;;;17.30;83.00;;;;;;5015348;28;19913;-69
2022/09/09 02:13:46;;;;;;;4.95;1.40;;;17.20;82.90;;;;;;5018388;28;20032;-73
2022/09/09 02:16:37;;;;;;;4.93;1.90;;;17.20;82.90;;;;;;5022113;28;20017;-73
2022/09/09 02:19:25;;;;;;;6.07;1.50;;;17.20;82.90;;;;;;5015211;28;20123;-76
2022/09/09 02:21:54;;;;;;;13.32;2.00;;;17.20;82.90;;;;;;5014500;28;20030;-75
2022/09/09 02:24:22;;;;;;;6.85;1.75;;;17.20;83.00;;;;;;5020084;28;20030;-70
2022/09/09 02:26:53;;;;;;;6.72;2.22;;;17.20;83.20;;;;;;5014757;28;20030;-70
2022/09/09 02:29:31;;;;;;;3.83;1.55;;;17.20;83.40;;;;;;5019477;28;20021;-75
2022/09/09 02:32:02;;;;;;;6.85;1.83;;;17.20;83.50;;;;;;5015383;28;20746;-76
2022/09/09 02:34:31;;;;;;;5.38;2.00;;;17.20;83.10;;;;;;5012051;28;20037;-75
2022/09/09 02:37:00;;;;;;;4.10;2.00;;;17.10;82.60;;;;;;5016635;28;20129;-75
2022/09/09 02:39:27;;;;;;;8.55;1.75;;;17.10;82.30;;;;;;5019931;28;20038;-72
2022/09/09 02:41:53;;;;;;;5.70;2.05;;;17.10;82.20;;;;;;5015666;28;20025;-73
2022/09/09 02:44:20;;;;;;;6.90;1.88;;;17.10;82.10;;;;;;5016546;28;20140;-72
2022/09/09 02:47:20;;;;;;;3.78;2.22;;;17.00;81.90;;;;;;5013681;28;20366;-69
2022/09/09 02:49:55;;;;;;;6.47;1.50;;;17.00;81.60;;;;;;5016439;28;20017;-71
2022/09/09 02:52:34;;;;;;;6.65;1.70;;;17.00;81.50;;;;;;5016036;28;20448;-73
2022/09/09 02:55:09;;;;;;;5.93;2.50;;;17.00;81.20;;;;;;5020949;28;20458;-70
2022/09/09 02:57:36;;;;;;;7.00;1.67;;;17.00;81.80;;;;;;5016676;28;20477;-70
2022/09/09 03:00:05;;;;;;;4.47;2.03;;;17.00;81.10;;;;;;5012621;28;20041;-73
2022/09/09 03:02:31;;;;;;;5.97;2.58;;;17.00;81.00;;;;;;5019303;28;20022;-74
2022/09/09 03:04:58;;;;;;;3.25;1.48;;;16.90;80.80;;;;;;5017010;28;20160;-69
2022/09/09 03:07:24;;;;;;;6.78;1.67;;;16.90;80.80;;;;;;5016226;28;20017;-71
2022/09/09 03:09:53;;;;;;;7.43;2.20;;;16.90;80.90;;;;;;5017149;28;20025;-77
2022/09/09 03:12:20;;;;;;;3.53;1.65;;;16.90;81.00;;;;;;5015506;28;20037;-77
2022/09/09 03:14:46;;;;;;;8.52;1.33;;;16.80;81.00;;;;;;5016694;28;20030;-69
2022/09/09 03:17:13;;;;;;;7.50;2.17;;;16.70;81.00;;;;;;5018305;28;20788;-77
2022/09/09 03:19:39;;;;;;;9.88;2.25;;;16.70;81.00;;;;;;5017708;28;20045;-74
2022/09/09 03:22:06;;;;;;;4.25;1.65;;;16.70;81.00;;;;;;5018966;28;20786;-72
2022/09/09 03:24:33;;;;;;;9.88;2.13;;;16.70;81.00;;;;;;5017048;28;20099;-74
2022/09/09 03:26:59;;;;;;;11.82;3.05;;;16.70;81.10;;;;;;5014709;28;20021;-71
2022/09/09 03:29:26;;;;;;;14.70;2.58;;;16.70;81.90;;;;;;5015631;28;20034;-72
2022/09/09 03:31:52;;;;;;;6.70;1.80;;;16.70;82.30;;;;;;5018624;28;20108;-72
2022/09/09 03:34:19;;;;;;;5.78;1.73;;;16.70;82.60;;;;;;5015214;28;20025;-76
2022/09/09 03:37:25;;;;;;;7.35;2.95;;;16.70;82.70;;;;;;5017066;28;20053;-76
2022/09/09 03:40:31;;;;;;;6.38;1.50;;;16.70;82.50;;;;;;5015123;28;20038;-71
2022/09/09 03:43:37;;;;;;;6.80;1.23;;;16.70;82.10;;;;;;5020132;28;20029;-71
2022/09/09 03:46:43;;;;;;;10.95;1.83;;;16.60;81.90;;;;;;5015327;28;20026;-76
2022/09/09 03:49:49;;;;;;;16.77;2.45;;;16.60;82.10;;;;;;5014338;28;20045;-72
2022/09/09 03:52:55;;;;;;;11.95;2.72;;;16.50;82.10;;;;;;5016797;28;20495;-72
2022/09/09 03:56:08;;;;;;;6.32;2.20;;;16.60;82.20;;;;;;5016092;28;20088;-70
2022/09/09 03:59:14;;;;;;;9.88;1.55;;;16.50;82.10;;;;;;5015963;28;20025;-76
2022/09/09 04:02:21;;;;;;;8.10;1.98;;;16.50;82.10;;;;;;5016336;28;20030;-70
2022/09/09 04:05:27;;;;;;;4.30;1.67;;;16.50;82.20;;;;;;5012696;28;20017;-70
2022/09/09 04:08:33;;;;;;;9.40;2.08;;;16.50;82.20;;;;;;5017305;28;20105;-70
2022/09/09 04:11:39;;;;;;;24.13;10.55;;;16.50;82.40;;;;;;5016716;28;20032;-68
2022/09/09 04:14:45;;;;;;;19.85;9.80;;;16.50;82.90;;;;;;5010271;28;20393;-70
2022/09/09 04:17:51;;;;;;;9.55;4.28;;;16.50;82.90;;;;;;5010652;28;20109;-69
2022/09/09 04:20:57;;;;;;;19.45;3.13;;;16.40;82.80;;;;;;5014481;28;20032;-72
2022/09/09 04:24:03;;;;;;;9.40;3.25;;;16.40;83.40;;;;;;5015438;28;20026;-69
2022/09/09 04:27:09;;;;;;;4.13;1.65;;;16.50;83.90;;;;;;5013664;28;20064;-73
2022/09/09 04:30:14;;;;;;;4.57;2.35;;;16.50;84.10;;;;;;5014999;28;20381;-74
2022/09/09 04:32:42;;;;;;;6.75;1.98;;;16.50;84.20;;;;;;4976169;28;20045;-74
2022/09/09 04:35:08;;;;;;;7.75;2.85;;;16.50;84.20;;;;;;5012921;28;20025;-72
2022/09/09 04:38:14;;;;;;;5.90;2.22;;;16.40;84.10;;;;;;5015960;28;20053;-74
2022/09/09 04:41:23;;;;;;;14.77;2.83;;;16.40;84.00;;;;;;5010028;28;20042;-72
2022/09/09 04:44:30;;;;;;;15.45;8.73;;;16.40;84.30;;;;;;5012523;28;20112;-75
2022/09/09 04:46:56;;;;;;;14.02;5.55;;;16.50;84.50;;;;;;5013982;28;20511;-77
2022/09/09 04:49:23;;;;;;;11.30;5.90;;;16.40;84.30;;;;;;5013115;28;20049;-72
2022/09/09 04:51:50;;;;;;;6.68;3.67;;;16.40;84.10;;;;;;5017810;28;20029;-73
2022/09/09 04:54:16;;;;;;;6.18;2.22;;;16.40;84.00;;;;;;5013105;28;20013;-73
2022/09/09 04:56:43;;;;;;;8.90;2.83;;;16.40;84.00;;;;;;5015866;28;20095;-73
2022/09/09 04:59:09;;;;;;;7.80;2.47;;;16.40;84.00;;;;;;5011137;28;20061;-73
2022/09/09 05:01:36;;;;;;;5.20;2.17;;;16.30;84.00;;;;;;5014907;28;20054;-72
2022/09/09 05:04:03;;;;;;;9.88;2.63;;;16.30;84.00;;;;;;5015737;28;20026;-73
2022/09/09 05:06:32;;;;;;;7.47;2.78;;;16.30;84.00;;;;;;5012148;28;20379;-73
2022/09/09 05:09:00;;;;;;;6.95;2.50;;;16.30;84.00;;;;;;5014504;28;20026;-72
2022/09/09 05:11:28;;;;;;;7.80;3.58;;;16.30;84.00;;;;;;5013988;28;20022;-73
2022/09/09 05:13:56;;;;;;;10.75;2.63;;;16.30;84.10;;;;;;5020178;28;20029;-73
2022/09/09 05:16:23;;;;;;;10.18;3.22;;;16.30;84.10;;;;;;5014422;28;20638;-72
2022/09/09 05:18:51;;;;;;;9.13;2.47;;;16.30;84.10;;;;;;5013943;28;20546;-72
2022/09/09 05:21:19;;;;;;;7.05;2.40;;;16.30;84.70;;;;;;5012663;28;20061;-72
2022/09/09 05:23:46;;;;;;;7.22;2.85;;;16.30;84.30;;;;;;5015476;28;20037;-72
2022/09/09 05:26:18;;;;;;;8.15;2.63;;;16.30;84.10;;;;;;5017171;28;20029;-73
2022/09/09 05:28:46;;;;;;;11.13;3.15;;;16.30;84.20;;;;;;5014710;28;20476;-73
2022/09/09 05:31:14;;;;;;;8.10;3.47;;;16.30;84.30;;;;;;5018863;28;20041;-72
2022/09/09 05:33:43;;;;;;;13.43;3.78;;;16.30;84.30;;;;;;5019938;28;20026;-72
2022/09/09 05:36:14;;;;;;;10.20;3.33;;;16.30;84.40;;;;;;5018826;28;20018;-72
2022/09/09 05:38:42;;;;;;;5.00;2.53;;;16.20;84.50;;;;;;5016476;28;20033;-73
2022/09/09 05:41:10;;;;;;;10.93;2.88;;;16.20;84.60;;;;;;5016677;28;20038;-72
2022/09/09 05:43:38;;;;;;;16.73;2.78;;;16.20;84.70;;;;;;5016699;28;20037;-72
2022/09/09 05:46:05;;;;;;;4.68;3.40;;;16.20;84.80;;;;;;5017090;28;20507;-73
2022/09/09 05:48:34;;;;;;;9.20;2.95;;;16.20;85.00;;;;;;5018985;28;20046;-72
2022/09/09 05:51:02;;;;;;;9.70;2.60;;;16.20;85.00;;;;;;5019447;28;20026;-73
2022/09/09 05:53:33;;;;;;;9.55;3.53;;;16.20;85.10;;;;;;5017850;28;20540;-73
2022/09/09 05:56:05;;;;;;;10.98;2.83;;;16.20;85.30;;;;;;5017749;28;20060;-72
2022/09/09 05:58:33;;;;;;;10.85;4.25;;;16.20;85.30;;;;;;5020076;28;20030;-73
2022/09/09 06:01:05;;;;;;;6.45;2.38;;;16.20;85.50;;;;;;5019472;28;20692;-71
2022/09/09 06:03:31;;;;;;;11.70;4.03;;;16.20;85.60;;;;;;5017751;28;20026;-72
2022/09/09 06:05:59;;;;;;;9.95;3.20;;;16.20;85.70;;;;;;5021584;28;20029;-72
2022/09/09 06:08:26;;;;;;;11.70;4.43;;;16.30;85.80;;;;;;5019002;28;20512;-73
2022/09/09 06:10:52;;;;;;;6.25;3.22;;;16.30;85.90;;;;;;5018315;28;20421;-72
2022/09/09 06:13:19;;;;;;;9.57;3.88;;;16.30;86.00;;;;;;5014885;28;20017;-73
2022/09/09 06:15:52;;;;;;;15.23;3.47;;;16.30;86.60;;;;;;5018375;28;20064;-72
2022/09/09 06:18:19;;;;;;;9.00;4.25;;;16.30;87.00;;;;;;5017339;28;20051;-73
2022/09/09 06:21:06;;;;;;;10.57;3.30;;;16.30;87.30;;;;;;5014113;28;20034;-72
2022/09/09 06:23:36;;;;;;;12.68;4.60;;;16.40;87.60;;;;;;5020096;28;20376;-73
2022/09/09 06:26:09;;;;;;;8.02;4.22;;;16.40;87.90;;;;;;5014532;28;20021;-72
2022/09/09 06:28:37;;;;;;;9.95;2.58;;;16.40;88.10;;;;;;5017761;28;20018;-73
2022/09/09 06:31:11;;;;;;;7.55;2.17;;;16.50;88.30;;;;;;5019496;28;20053;-73
2022/09/09 06:33:44;;;;;;;6.43;2.40;;;16.50;88.40;;;;;;5016318;28;20026;-73
2022/09/09 06:36:28;;;;;;;6.25;1.83;;;16.60;88.60;;;;;;5017216;28;20170;-73
2022/09/09 06:38:55;;;;;;;5.72;2.92;;;16.60;88.70;;;;;;5012555;28;20088;-73
2022/09/09 06:41:23;;;;;;;7.60;2.50;;;16.60;88.80;;;;;;5015463;28;20038;-72
2022/09/09 06:43:49;;;;;;;12.63;3.13;;;16.60;88.90;;;;;;5016468;28;20018;-73
2022/09/09 06:46:18;;;;;;;7.00;2.35;;;16.70;89.10;;;;;;5018441;28;20057;-73
2022/09/09 06:48:45;;;;;;;10.63;4.25;;;16.70;89.20;;;;;;5019788;28;20024;-73
2022/09/09 06:51:15;;;;;;;9.32;2.65;;;16.70;89.50;;;;;;5016488;28;20014;-73
2022/09/09 06:53:44;;;;;;;5.47;1.83;;;16.70;89.50;;;;;;5018063;28;20133;-72
2022/09/09 06:56:10;;;;;;;12.07;2.30;;;16.80;89.70;;;;;;5014639;28;20072;-72
2022/09/09 06:58:42;;;;;;;11.20;2.55;;;16.80;89.80;;;;;;5017703;28;20029;-73
2022/09/09 07:01:10;;;;;;;5.95;3.50;;;16.80;89.70;;;;;;5013979;28;20060;-72
2022/09/09 07:03:37;;;;;;;7.07;2.58;;;16.80;89.50;;;;;;5017262;28;20033;-73
2022/09/09 07:06:03;;;;;;;10.70;2.33;;;16.80;89.40;;;;;;5016552;28;20029;-72
2022/09/09 07:08:31;;;;;;;12.35;2.25;;;16.90;89.40;;;;;;5014713;28;20033;-72
2022/09/09 07:11:08;;;;;;;5.70;1.77;;;16.90;89.10;;;;;;5017032;28;20022;-73
2022/09/09 07:13:35;;;;;;;7.57;3.33;;;16.90;88.90;;;;;;5019154;28;20889;-73
2022/09/09 07:16:13;;;;;;;4.43;3.92;;;16.90;88.70;;;;;;5016913;28;20029;-72
2022/09/09 07:18:41;;;;;;;8.82;2.85;;;16.90;88.40;;;;;;5017494;28;20148;-72
2022/09/09 07:21:09;;;;;;;5.55;1.90;;;16.90;88.10;;;;;;5016898;28;20045;-73
2022/09/09 07:23:36;;;;;;;4.85;1.65;;;17.00;87.80;;;;;;5017287;28;20097;-72
2022/09/09 07:26:07;;;;;;;8.40;2.00;;;17.00;87.70;;;;;;5013576;28;20029;-73
2022/09/09 07:28:34;;;;;;;4.78;2.22;;;17.00;87.40;;;;;;5015383;28;20026;-72
2022/09/09 07:31:04;;;;;;;12.63;2.33;;;17.10;87.20;;;;;;5016870;28;20122;-73
2022/09/09 07:33:34;;;;;;;7.13;1.67;;;17.10;87.10;;;;;;5017299;28;20533;-72
2022/09/09 07:36:09;;;;;;;4.93;1.27;;;17.10;87.00;;;;;;5016416;28;20042;-72
2022/09/09 07:38:40;;;;;;;4.47;1.55;;;17.20;86.90;;;;;;5012532;28;20727;-71
2022/09/09 07:41:14;;;;;;;4.68;1.88;;;17.20;86.80;;;;;;5014727;28;20084;-72
2022/09/09 07:43:42;;;;;;;6.47;1.83;;;17.30;86.70;;;;;;5014554;28;20105;-72
2022/09/09 07:46:09;;;;;;;6.93;1.92;;;17.30;86.50;;;;;;5017319;28;20029;-72
2022/09/09 07:48:36;;;;;;;10.27;2.85;;;17.30;86.40;;;;;;5016947;28;20527;-73
2022/09/09 07:51:11;;;;;;;7.15;2.25;;;17.40;86.40;;;;;;5016065;28;20037;-72
2022/09/09 07:53:39;;;;;;;6.55;1.80;;;17.40;86.80;;;;;;4996170;28;20034;-72
2022/09/09 07:56:09;;;;;;;12.23;2.95;;;17.50;87.30;;;;;;5015238;28;20113;-73
2022/09/09 07:58:40;;;;;;;8.07;1.95;;;17.50;87.20;;;;;;5019103;28;20021;-72
2022/09/09 08:01:17;;;;;;;12.70;2.42;;;17.60;87.30;;;;;;5017511;28;21154;-73
2022/09/09 08:03:45;;;;;;;7.75;2.22;;;17.60;87.40;;;;;;5014534;28;20038;-73
2022/09/09 08:06:13;;;;;;;14.13;2.65;;;17.70;88.10;;;;;;5014615;28;20025;-73
2022/09/09 08:08:43;;;;;;;8.02;2.10;;;17.70;87.30;;;;;;5017187;28;20067;-73
2022/09/09 08:11:15;;;;;;;10.77;1.70;;;17.80;87.20;;;;;;5013701;28;20507;-73
2022/09/09 08:13:43;;;;;;;12.23;1.33;;;17.80;87.10;;;;;;5013583;28;20025;-72
2022/09/09 08:16:18;;;;;;;6.45;1.92;;;17.80;86.70;;;;;;5017222;28;20390;-72
2022/09/09 08:18:44;;;;;;;;;;;17.90;86.40;;;;;;5013736;28;20018;-72
2022/09/09 08:21:13;;;;;;;7.18;2.20;;;17.90;86.30;;;;;;5019537;28;19921;-73
2022/09/09 08:23:42;;;;;;;8.73;1.73;;;18.00;86.10;;;;;;5019021;28;20515;-73
2022/09/09 08:26:13;;;;;;;4.50;1.40;;;18.00;85.90;;;;;;5012590;28;20049;-72
2022/09/09 08:28:40;;;;;;;10.30;1.80;;;18.10;85.60;;;;;;5013057;28;20018;-72
2022/09/09 08:31:16;;;;;;;4.88;1.85;;;18.10;85.20;;;;;;5014578;28;20045;-72
2022/09/09 08:33:45;;;;;;;3.85;1.67;;;18.20;84.70;;;;;;5013511;28;20022;-72
2022/09/09 08:36:17;;;;;;;11.40;1.83;;;18.20;84.10;;;;;;5015367;28;20046;-73
2022/09/09 08:38:47;;;;;;;4.80;1.65;;;18.30;83.80;;;;;;5013411;28;20061;-73
2022/09/09 08:41:41;;;;;;;8.23;1.70;;;18.30;83.20;;;;;;5018492;28;20609;-73
2022/09/09 08:44:28;;;;;;;5.80;2.25;;;18.30;82.70;;;;;;5014986;28;20034;-72
2022/09/09 08:47:27;;;;;;;6.93;2.03;;;18.40;82.30;;;;;;4996594;28;20488;-72
2022/09/09 08:50:18;;;;;;;9.82;1.92;;;18.40;81.80;;;;;;5016860;28;20030;-72
2022/09/09 08:53:10;;;;;;;10.43;1.80;;;18.50;81.50;;;;;;5009004;28;20400;-73
2022/09/09 08:55:51;;;;;;;3.63;1.35;;;18.50;81.10;;;;;;5014032;28;20540;-72
2022/09/09 08:58:25;;;;;;;3.78;1.83;;;18.50;80.70;;;;;;5016576;28;20065;-72
2022/09/09 09:01:18;;;;;;;3.70;1.50;;;18.60;80.30;;;;;;5016173;28;20099;-73
2022/09/09 09:04:03;;;;;;;2.20;1.20;;;18.60;79.80;;;;;;5019096;28;20345;-73
2022/09/09 09:06:39;;;;;;;4.32;1.50;;;18.70;79.50;;;;;;5018369;28;20026;-72
2022/09/09 09:09:16;;;;;;;2.88;0.82;;;18.70;78.90;;;;;;5016464;28;20485;-72
2022/09/09 09:11:52;;;;;;;6.53;1.50;;;18.80;78.70;;;;;;5018945;28;20028;-73
2022/09/09 09:14:25;;;;;;;2.70;1.33;;;18.80;78.20;;;;;;5023085;28;20025;-72
2022/09/09 09:16:58;;;;;;;2.70;1.88;;;18.90;77.70;;;;;;5016372;28;20164;-72
2022/09/09 09:19:26;;;;;;;4.43;1.40;;;18.90;77.40;;;;;;5015279;28;20081;-72
2022/09/09 09:22:07;;;;;;;5.15;1.50;;;19.00;77.10;;;;;;5019615;28;20365;-72
2022/09/09 09:24:55;;;;;;;4.55;1.15;;;19.00;76.50;;;;;;5015940;28;20097;-73
2022/09/09 09:27:32;;;;;;;2.90;1.60;;;19.10;76.00;;;;;;5017960;28;20682;-73
2022/09/09 09:30:12;;;;;;;3.03;1.20;;;19.10;75.50;;;;;;5019332;28;20108;-73
2022/09/09 09:32:41;;;;;;;6.00;1.83;;;19.10;75.40;;;;;;5012517;28;20573;-73
2022/09/09 09:35:13;;;;;;;2.42;1.08;;;19.20;75.30;;;;;;5020792;28;20504;-72
2022/09/09 09:37:43;;;;;;;3.15;1.20;;;19.30;74.90;;;;;;5018652;28;20022;-72
2022/09/09 09:40:12;;;;;;;4.25;1.45;;;19.30;74.80;;;;;;5020677;28;20030;-72
2022/09/09 09:43:00;;;;;;;2.85;1.05;;;19.40;74.70;;;;;;5019145;28;20064;-73
2022/09/09 09:45:35;;;;;;;9.38;1.98;;;19.40;74.30;;;;;;5018354;28;20112;-73
2022/09/09 09:48:04;;;;;;;8.45;3.50;;;19.50;73.90;;;;;;5019935;28;20072;-72
2022/09/09 09:50:32;;;;;;;5.50;1.73;;;19.60;73.60;;;;;;5021806;28;20385;-72
2022/09/09 09:53:04;;;;;;;4.32;1.05;;;19.60;73.50;;;;;;5017959;28;20018;-72
2022/09/09 09:55:34;;;;;;;4.28;1.15;;;19.60;72.80;;;;;;5016579;28;20037;-72
2022/09/09 09:58:06;;;;;;;5.35;1.45;;;19.70;72.20;;;;;;5019142;28;20022;-73
2022/09/09 10:00:36;;;;;;;3.75;1.20;;;19.70;72.00;;;;;;5015221;28;20125;-72
2022/09/09 10:03:20;;;;;;;3.45;1.20;;;19.80;72.00;;;;;;5020044;28;20465;-73
2022/09/09 10:05:47;;;;;;;5.93;1.25;;;19.90;71.50;;;;;;5013759;28;20026;-73
2022/09/09 10:08:20;;;;;;;6.30;1.83;;;19.90;70.80;;;;;;5020182;28;20464;-73
2022/09/09 10:11:29;;;;;;;7.05;1.60;;;19.90;70.80;;;;;;5016390;28;20525;-73
2022/09/09 10:14:17;;;;;;;1.92;0.98;;;20.00;70.80;;;;;;5018654;28;20026;-72
2022/09/09 10:17:02;;;;;;;4.22;1.00;;;20.10;70.90;;;;;;5018698;28;20468;-72
2022/09/09 10:19:34;;;;;;;3.70;1.33;;;20.10;70.20;;;;;;5010598;28;20511;-72
2022/09/09 10:22:19;;;;;;;5.05;1.20;;;20.20;70.20;;;;;;5019455;28;20025;-73
2022/09/09 10:25:01;;;;;;;4.20;1.50;;;20.20;70.00;;;;;;5012925;28;20029;-73
2022/09/09 10:27:36;;;;;;;3.78;1.40;;;20.30;69.60;;;;;;5017536;28;20520;-72
2022/09/09 10:30:16;;;;;;;4.53;1.48;;;20.30;69.60;;;;;;5018090;28;20050;-73
2022/09/09 10:32:45;;;;;;;3.65;1.50;;;20.40;69.10;;;;;;5016914;28;20029;-73
2022/09/09 10:35:12;;;;;;;6.80;1.85;;;20.40;69.10;;;;;;5015751;28;20104;-72
2022/09/09 10:38:10;;;;;;;2.60;1.50;;;20.50;68.90;;;;;;5014955;28;20026;-73
2022/09/09 10:40:37;;;;;;;3.70;1.60;;;20.60;69.10;;;;;;5012168;28;20152;-73
2022/09/09 10:43:15;;;;;;;5.38;1.60;;;20.60;69.10;;;;;;5015153;28;20574;-72
2022/09/09 10:45:48;;;;;;;5.07;2.25;;;20.70;68.60;;;;;;5013878;28;20025;-73
2022/09/09 10:48:39;;;;;;;2.80;1.30;;;20.80;68.30;;;;;;5019639;28;20034;-72
2022/09/09 10:51:42;;;;;;;5.15;2.03;;;20.80;68.20;;;;;;5017282;28;20025;-72
2022/09/09 10:54:32;;;;;;;8.00;1.98;;;20.90;67.60;;;;;;4965348;28;20442;-73
2022/09/09 10:57:28;;;;;;;6.15;1.98;;;20.90;67.50;;;;;;5017330;28;20120;-72
2022/09/09 11:00:03;;;;;;;4.85;1.65;;;21.00;67.00;;;;;;4978997;28;20559;-74
2022/09/09 11:02:31;;;;;;;10.32;1.80;;;21.00;66.70;;;;;;5015621;28;20136;-73
2022/09/09 11:05:24;;;;;;;7.30;1.67;;;21.10;66.80;;;;;;5017872;28;20600;-72
2022/09/09 11:08:03;;;;;;;12.20;1.70;;;21.20;66.70;;;;;;5007582;28;20030;-72
2022/09/09 11:10:52;;;;;;;9.73;1.55;;;21.20;66.80;;;;;;5016187;28;20030;-73
2022/09/09 11:13:31;;;;;;;8.65;1.73;;;21.30;66.60;;;;;;5017797;28;20073;-72
2022/09/09 11:16:24;;;;;;;8.68;2.20;;;21.30;66.10;;;;;;5016731;28;20029;-72
2022/09/09 11:18:50;;;;;;;8.30;1.58;;;21.40;65.90;;;;;;5004083;28;20116;-72
2022/09/09 11:21:25;;;;;;;5.72;1.92;;;21.40;65.70;;;;;;5020074;28;20092;-72
2022/09/09 11:23:58;;;;;;;6.22;1.95;;;21.50;65.50;;;;;;5017591;28;20018;-72
2022/09/09 11:26:37;;;;;;;3.05;1.67;;;21.60;65.20;;;;;;5017517;28;20138;-72
2022/09/09 11:29:18;;;;;;;2.78;1.75;;;21.60;64.70;;;;;;5015935;28;20598;-72
2022/09/09 11:32:09;;;;;;;8.10;1.95;;;21.60;64.60;;;;;;5014685;28;20041;-72
2022/09/09 11:35:14;;;;;;;5.07;1.38;;;21.70;64.20;;;;;;5016111;28;20493;-73
2022/09/09 11:37:44;;;;;;;7.65;1.73;;;21.70;63.90;;;;;;5011780;28;20021;-72
2022/09/09 11:40:25;;;;;;;6.03;1.33;;;21.80;63.60;;;;;;5018354;28;20064;-72
2022/09/09 11:43:12;;;;;;;2.63;1.40;;;21.80;63.00;;;;;;5017157;28;20030;-72
2022/09/09 11:45:41;;;;;;;3.45;1.23;;;21.90;62.80;;;;;;5014891;28;20376;-72
2022/09/09 11:48:34;;;;;;;4.88;1.15;;;21.90;62.70;;;;;;5015623;28;20074;-72
2022/09/09 11:51:20;;;;;;;6.55;1.63;;;21.90;62.30;;;;;;4993623;28;20473;-72
2022/09/09 11:53:52;;;;;;;2.88;0.90;;;22.00;61.80;;;;;;5015855;28;20037;-72
2022/09/09 11:56:34;;;;;;;5.10;1.73;;;22.00;61.80;;;;;;5015340;28;20022;-73
2022/09/09 11:59:03;;;;;;;4.22;1.27;;;22.10;61.40;;;;;;5016300;28;20025;-73
2022/09/09 12:01:38;;;;;;;6.20;1.90;;;22.10;61.20;;;;;;5015046;28;20036;-72
2022/09/09 12:04:21;;;;;;;3.30;1.20;;;22.10;60.90;;;;;;5014704;28;20026;-72
2022/09/09 12:07:02;;;;;;;4.25;1.00;;;22.20;60.30;;;;;;5016588;28;20025;-72
2022/09/09 14:37:22;;;;;;;1.58;1.08;;;21.70;62.90;;;;;;6279893;22;20029;-71
2022/09/09 14:39:50;;;;;;;9.20;1.42;;;21.70;63.20;;;;;;6278770;22;20065;-71
2022/09/09 14:42:17;;;;;;;17.38;2.00;;;21.70;63.60;;;;;;6279427;22;20503;-69
2022/09/09 14:44:44;;;;;;;7.50;1.17;;;21.70;63.60;;;;;;6280871;22;20086;-69
2022/09/09 14:47:10;;;;;;;5.10;0.98;;;21.70;63.70;;;;;;6278057;22;20000;-69
2022/09/09 14:49:37;;;;;;;1.45;0.93;;;21.70;63.60;;;;;;6253411;22;20334;-69
2022/09/09 14:52:04;;;;;;;1.77;1.05;;;21.70;63.70;;;;;;6279608;22;20437;-71
2022/09/09 14:54:32;;;;;;;4.85;2.05;;;21.70;64.00;;;;;;6280623;22;20000;-75
2022/09/09 14:56:59;;;;;;;5.53;5.03;;;21.70;64.50;;;;;;6280344;22;20128;-71
2022/09/09 14:59:26;;;;;;;10.95;3.50;;;21.80;65.10;;;;;;6279377;22;19998;-75
2022/09/09 15:01:53;;;;;;;10.07;2.38;;;21.70;64.50;;;;;;6279946;22;20082;-73
2022/09/09 15:04:20;;;;;;;6.40;2.63;;;21.70;64.80;;;;;;6279156;22;20007;-71
2022/09/09 15:06:48;;;;;;;2.80;1.92;;;21.70;65.60;;;;;;6280837;22;20007;-71
2022/09/09 15:09:15;;;;;;;8.82;2.13;;;21.60;65.70;;;;;;6279239;22;20521;-72
2022/09/09 15:11:41;;;;;;;2.92;1.58;;;21.60;66.00;;;;;;6280459;22;20022;-73
2022/09/09 15:14:09;;;;;;;2.40;1.30;;;21.50;66.10;;;;;;6279950;22;20057;-73
2022/09/09 15:16:36;;;;;;;4.07;2.53;;;21.50;66.10;;;;;;6274680;22;20049;-70
2022/09/09 15:19:03;;;;;;;3.00;1.52;;;21.50;66.20;;;;;;6273602;22;20046;-72
2022/09/09 15:21:32;;;;;;;2.65;1.52;;;21.40;66.20;;;;;;6271015;22;20373;-71
2022/09/09 15:24:38;;;;;;;1.48;1.38;;;21.40;66.30;;;;;;6273993;22;20015;-71
2022/09/09 15:27:44;;;;;;;2.47;1.63;;;21.40;66.50;;;;;;6272726;22;20066;-71
2022/09/09 15:30:51;;;;;;;3.97;1.50;;;21.40;66.60;;;;;;6272001;22;20319;-71
2022/09/09 15:34:00;;;;;;;2.72;1.45;;;21.30;66.90;;;;;;6246887;22;20003;-71
2022/09/09 15:37:06;;;;;;;1.38;1.20;;;21.30;67.00;;;;;;6273682;22;20349;-71
2022/09/09 15:39:52;;;;;;;;;;;21.30;66.90;;;;;;6271979;22;20003;-71
2022/09/09 15:42:58;;;;;;;2.60;1.30;;;21.20;66.80;;;;;;6272850;22;20296;-72
2022/09/09 15:46:05;;;;;;;1.67;1.15;;;21.30;66.70;;;;;;6273188;22;20616;-71
2022/09/09 15:48:51;;;;;;;;;;;21.20;66.80;;;;;;6273067;22;20511;-71
2022/09/09 15:52:03;;;;;;;13.52;2.13;;;21.20;66.90;;;;;;6272655;22;19899;-71
2022/09/09 15:55:09;;;;;;;9.02;2.45;;;21.10;67.10;;;;;;6273360;22;20461;-71
2022/09/09 15:58:15;;;;;;;6.13;1.48;;;21.10;68.40;;;;;;6272190;22;19996;-71
2022/09/09 16:01:21;;;;;;;6.38;1.73;;;21.00;68.60;;;;;;6272241;22;19999;-73
2022/09/09 16:04:28;;;;;;;2.60;1.70;;;21.00;68.50;;;;;;6273146;22;20008;-73
2022/09/09 16:07:42;;;;;;;15.35;3.28;;;20.90;69.30;;;;;;6273863;22;20003;-74